createdAt,value
2022-08-08T00:00:55.924Z,101597.56
2022-08-08T00:03:32.318Z,101600.47
2022-08-08T00:06:35.320Z,101602.84
2022-08-08T00:09:15.990Z,101603.81
2022-08-08T00:12:07.717Z,101606.00
2022-08-08T00:15:00.362Z,101606.72
2022-08-08T00:18:01.576Z,101608.03
2022-08-08T00:20:39.871Z,101601.09
2022-08-08T00:23:16.544Z,101604.13
2022-08-08T00:25:51.090Z,101594.81
2022-08-08T00:28:35.705Z,101599.13
2022-08-08T00:32:29.068Z,101609.53
2022-08-08T00:34:40.041Z,101607.06
2022-08-08T00:37:47.510Z,101603.53
2022-08-08T00:41:09.607Z,101605.53
2022-08-08T00:43:41.619Z,101609.25
2022-08-08T00:46:21.655Z,101607.38
2022-08-08T00:49:22.360Z,101597.59
2022-08-08T00:52:39.092Z,101594.28
2022-08-08T00:55:09.486Z,101595.22
2022-08-08T00:57:57.029Z,101587.97
2022-08-08T01:00:37.880Z,101586.72
2022-08-08T01:04:00.904Z,101595.78
2022-08-08T01:06:27.721Z,101588.63
2022-08-08T01:09:42.608Z,101602.34
2022-08-08T01:12:37.535Z,101596.63
2022-08-08T01:15:43.859Z,101599.00
2022-08-08T01:18:53.110Z,101606.81
2022-08-08T01:22:12.195Z,101605.78
2022-08-08T01:25:16.680Z,101607.78
2022-08-08T01:27:44.268Z,101605.69
2022-08-08T01:30:48.936Z,101605.09
2022-08-08T01:33:53.837Z,101614.31
2022-08-08T01:36:56.932Z,101620.78
2022-08-08T01:40:02.734Z,101614.22
2022-08-08T01:42:58.893Z,101605.72
2022-08-08T01:45:54.424Z,101608.28
2022-08-08T01:48:35.066Z,101613.44
2022-08-08T01:52:04.986Z,101616.69
2022-08-08T01:55:26.449Z,101617.16
2022-08-08T01:58:12.423Z,101620.84
2022-08-08T02:01:04.425Z,101618.50
2022-08-08T02:03:56.844Z,101615.56
2022-08-08T02:06:54.270Z,101616.44
2022-08-08T02:10:04.394Z,101619.47
2022-08-08T02:12:52.915Z,101620.97
2022-08-08T02:15:41.170Z,101626.75
2022-08-08T02:18:26.655Z,101621.66
2022-08-08T02:21:18.225Z,101616.56
2022-08-08T02:24:06.060Z,101622.75
2022-08-08T02:26:45.940Z,101621.28
2022-08-08T02:29:53.132Z,101624.53
2022-08-08T02:32:47.435Z,101623.25
2022-08-08T02:36:04.887Z,101623.94
2022-08-08T02:38:37.022Z,101617.97
2022-08-08T02:41:58.830Z,101625.66
2022-08-08T02:44:43.050Z,101623.97
2022-08-08T02:47:59.968Z,101621.00
2022-08-08T02:51:02.894Z,101625.28
2022-08-08T02:53:51.236Z,101631.28
2022-08-08T02:56:57.087Z,101629.16
2022-08-08T03:00:26.392Z,101636.00
2022-08-08T03:03:09.809Z,101634.75
2022-08-08T03:06:11.227Z,101631.34
2022-08-08T03:09:37.903Z,101630.72
2022-08-08T03:13:01.167Z,101633.47
2022-08-08T03:15:59.849Z,101633.94
2022-08-08T03:18:53.123Z,101640.31
2022-08-08T03:21:19.496Z,101636.91
2022-08-08T03:23:59.679Z,101641.84
2022-08-08T03:26:42.701Z,101647.81
2022-08-08T03:29:20.506Z,101653.75
2022-08-08T03:32:09.372Z,101651.44
2022-08-08T03:34:40.063Z,101647.41
2022-08-08T03:38:00.008Z,101657.41
2022-08-08T03:40:02.387Z,101654.25
2022-08-08T03:42:30.924Z,101659.56
2022-08-08T03:44:57.865Z,101658.09
2022-08-08T03:47:25.804Z,101651.28
2022-08-08T03:50:20.006Z,101650.88
2022-08-08T03:52:51.368Z,101660.06
2022-08-08T03:55:57.793Z,101661.97
2022-08-08T03:58:31.806Z,101673.47
2022-08-08T04:01:02.148Z,101672.81
2022-08-08T04:03:58.166Z,101676.88
2022-08-08T04:06:29.913Z,101676.22
2022-08-08T04:09:11.023Z,101678.38
2022-08-08T04:11:48.360Z,101679.66
2022-08-08T04:14:34.357Z,101682.44
2022-08-08T04:17:02.152Z,101676.25
2022-08-08T04:19:36.910Z,101682.00
2022-08-08T04:22:04.062Z,101683.06
2022-08-08T04:24:31.191Z,101688.81
2022-08-08T04:26:59.751Z,101679.66
2022-08-08T04:29:33.247Z,101675.41
2022-08-08T04:32:06.669Z,101683.09
2022-08-08T04:34:49.428Z,101690.72
2022-08-08T04:37:20.213Z,101687.34
2022-08-08T04:40:06.956Z,101691.16
2022-08-08T04:42:36.848Z,101692.88
2022-08-08T04:45:05.186Z,101699.47
2022-08-08T04:47:31.987Z,101698.84
2022-08-08T04:50:04.996Z,101704.56
2022-08-08T04:52:34.008Z,101712.03
2022-08-08T04:55:02.177Z,101708.63
2022-08-08T04:57:29.071Z,101710.31
2022-08-08T04:59:59.434Z,101714.16
2022-08-08T05:02:31.505Z,101719.69
2022-08-08T05:04:59.322Z,101717.97
2022-08-08T05:07:26.947Z,101718.84
2022-08-08T05:10:05.301Z,101719.69
2022-08-08T05:12:36.707Z,101716.94
2022-08-08T05:15:09.572Z,101724.38
2022-08-08T05:17:53.656Z,101716.69
2022-08-08T05:20:21.173Z,101715.44
2022-08-08T05:22:51.130Z,101723.31
2022-08-08T05:25:20.474Z,101718.41
2022-08-08T05:27:48.348Z,101726.94
2022-08-08T05:30:14.846Z,101728.63
2022-08-08T05:32:42.482Z,101726.28
2022-08-08T05:35:10.091Z,101724.78
2022-08-08T05:37:53.109Z,101723.09
2022-08-08T05:40:27.890Z,101722.44
2022-08-08T05:43:01.621Z,101720.28
2022-08-08T05:45:42.786Z,101727.75
2022-08-08T05:48:17.808Z,101729.22
2022-08-08T05:50:58.861Z,101729.63
2022-08-08T05:54:24.857Z,101734.50
2022-08-08T05:56:28.036Z,101737.06
2022-08-08T05:59:58.745Z,101735.09
2022-08-08T06:02:33.250Z,101735.44
2022-08-08T06:05:02.810Z,101726.81
2022-08-08T06:07:50.966Z,101731.66
2022-08-08T06:10:24.553Z,101728.56
2022-08-08T06:12:51.525Z,101725.69
2022-08-08T06:15:17.947Z,101730.09
2022-08-08T06:17:50.974Z,101735.31
2022-08-08T06:20:30.915Z,101736.31
2022-08-08T06:22:58.042Z,101732.56
2022-08-08T06:25:33.337Z,101740.75
2022-08-08T06:28:29.273Z,101745.75
2022-08-08T06:31:02.807Z,101749.44
2022-08-08T06:34:27.544Z,101741.59
2022-08-08T06:36:53.547Z,101742.34
2022-08-08T06:39:21.946Z,101745.78
2022-08-08T06:41:59.360Z,101747.78
2022-08-08T06:44:30.176Z,101743.59
2022-08-08T06:46:58.797Z,101749.47
2022-08-08T06:49:55.559Z,101752.38
2022-08-08T06:52:15.942Z,101748.03
2022-08-08T06:54:44.364Z,101742.63
2022-08-08T06:57:15.842Z,101751.72
2022-08-08T07:00:10.236Z,101752.72
2022-08-08T07:02:32.947Z,101750.69
2022-08-08T07:05:06.358Z,101763.44
2022-08-08T07:08:04.544Z,101745.28
2022-08-08T07:10:39.576Z,101755.25
2022-08-08T07:13:11.023Z,101757.94
2022-08-08T07:16:06.215Z,101765.47
2022-08-08T07:19:01.048Z,101761.25
2022-08-08T07:21:35.981Z,101758.72
2022-08-08T07:24:14.022Z,101758.09
2022-08-08T07:26:41.284Z,101760.16
2022-08-08T07:29:20.174Z,101757.88
2022-08-08T07:31:55.587Z,101760.91
2022-08-08T07:34:31.355Z,101772.06
2022-08-08T07:36:59.599Z,101761.16
2022-08-08T07:39:29.126Z,101763.06
2022-08-08T07:42:03.527Z,101755.41
2022-08-08T07:44:38.185Z,101746.09
2022-08-08T07:47:08.021Z,101751.88
2022-08-08T07:49:34.757Z,101753.53
2022-08-08T07:52:04.444Z,101750.59
2022-08-08T07:54:46.673Z,101744.63
2022-08-08T07:57:48.520Z,101739.97
2022-08-08T08:00:18.656Z,101742.38
2022-08-08T08:02:53.266Z,101745.09
2022-08-08T08:05:33.295Z,101742.75
2022-08-08T08:08:23.380Z,101747.72
2022-08-08T08:10:51.784Z,101742.41
2022-08-08T08:14:08.459Z,101748.72
2022-08-08T08:16:36.666Z,101736.03
2022-08-08T08:19:05.614Z,101735.00
2022-08-08T08:21:53.466Z,101731.78
2022-08-08T08:24:30.935Z,101728.66
2022-08-08T08:27:02.769Z,101731.63
2022-08-08T08:29:30.417Z,101737.34
2022-08-08T08:31:59.050Z,101744.78
2022-08-08T08:34:31.948Z,101722.53
2022-08-08T08:36:59.895Z,101727.44
2022-08-08T08:39:39.191Z,101733.16
2022-08-08T08:42:29.511Z,101725.19
2022-08-08T08:45:10.397Z,101717.78
2022-08-08T08:47:53.387Z,101719.66
2022-08-08T08:50:32.619Z,101721.19
2022-08-08T08:53:04.677Z,101717.09
2022-08-08T08:55:50.901Z,101709.94
2022-08-08T08:58:39.794Z,101712.00
2022-08-08T09:01:13.090Z,101717.44
2022-08-08T09:03:46.481Z,101714.78
2022-08-08T09:06:34.249Z,101711.75
2022-08-08T09:09:36.189Z,101711.63
2022-08-08T09:12:10.334Z,101703.25
2022-08-08T09:14:43.143Z,101703.88
2022-08-08T09:17:17.852Z,101716.31
2022-08-08T09:22:02.280Z,101716.97
2022-08-08T09:22:35.153Z,101708.88
2022-08-08T09:25:03.865Z,101708.31
2022-08-08T09:27:56.766Z,101705.25
2022-08-08T09:30:22.028Z,101689.25
2022-08-08T09:33:55.392Z,101694.38
2022-08-08T09:35:49.644Z,101688.19
2022-08-08T09:39:03.544Z,101681.78
2022-08-08T09:42:14.122Z,101685.13
2022-08-08T09:45:15.796Z,101672.50
2022-08-08T09:48:10.075Z,101674.72
2022-08-08T09:50:36.763Z,101682.03
2022-08-08T09:53:24.882Z,101674.72
2022-08-08T09:56:04.907Z,101682.56
2022-08-08T09:58:41.537Z,101674.66
2022-08-08T10:01:15.076Z,101667.31
2022-08-08T10:04:02.277Z,101661.63
2022-08-08T10:06:32.425Z,101666.63
2022-08-08T10:08:59.877Z,101666.56
2022-08-08T10:12:26.446Z,101662.59
2022-08-08T10:14:28.254Z,101653.53
2022-08-08T10:17:38.506Z,101663.56
2022-08-08T10:19:58.147Z,101647.91
2022-08-08T10:22:26.645Z,101642.44
2022-08-08T10:25:00.136Z,101647.38
2022-08-08T10:27:34.145Z,101638.75
2022-08-08T10:30:04.064Z,101641.13
2022-08-08T10:32:32.506Z,101629.97
2022-08-08T10:35:04.350Z,101639.97
2022-08-08T10:37:38.542Z,101627.31
2022-08-08T10:40:16.115Z,101622.03
2022-08-08T10:42:45.001Z,101624.56
2022-08-08T10:45:15.735Z,101607.31
2022-08-08T10:47:48.480Z,101626.03
2022-08-08T10:50:23.761Z,101611.94
2022-08-08T10:52:51.512Z,101612.63
2022-08-08T10:55:39.547Z,101605.53
2022-08-08T10:58:08.335Z,101609.25
2022-08-08T11:00:52.519Z,101605.91
2022-08-08T11:03:36.321Z,101599.22
2022-08-08T11:06:12.294Z,101610.97
2022-08-08T11:08:53.270Z,101603.44
2022-08-08T11:11:59.714Z,101592.34
2022-08-08T11:14:12.442Z,101599.50
2022-08-08T11:16:46.733Z,101588.34
2022-08-08T11:19:15.693Z,101588.97
2022-08-08T11:21:55.571Z,101579.84
2022-08-08T11:24:27.212Z,101592.22
2022-08-08T11:26:57.958Z,101591.69
2022-08-08T11:29:29.429Z,101583.81
2022-08-08T11:32:14.491Z,101574.94
2022-08-08T11:35:08.812Z,101572.41
2022-08-08T11:38:34.403Z,101569.69
2022-08-08T11:40:22.500Z,101573.22
2022-08-08T11:42:54.576Z,101569.31
2022-08-08T11:45:22.607Z,101572.88
2022-08-08T11:48:02.795Z,101568.53
2022-08-08T11:50:33.707Z,101561.59
2022-08-08T11:53:05.790Z,101558.19
2022-08-08T11:55:35.318Z,101553.00
2022-08-08T11:58:14.770Z,101545.19
2022-08-08T12:00:53.720Z,101547.94
2022-08-08T12:03:21.244Z,101543.63
2022-08-08T12:05:48.361Z,101539.41
2022-08-08T12:08:15.138Z,101541.00
2022-08-08T12:10:52.805Z,101531.47
2022-08-08T12:13:38.469Z,101522.13
2022-08-08T12:16:16.958Z,101530.03
2022-08-08T12:18:56.170Z,101533.00
2022-08-08T12:21:59.668Z,101522.31
2022-08-08T12:24:28.050Z,101512.63
2022-08-08T12:26:58.321Z,101517.63
2022-08-08T12:29:40.602Z,101506.88
2022-08-08T12:32:13.322Z,101512.06
2022-08-08T12:35:04.541Z,101506.84
2022-08-08T12:37:41.048Z,101508.84
2022-08-08T12:40:23.023Z,101507.47
2022-08-08T12:42:51.627Z,101508.91
2022-08-08T12:45:58.382Z,101499.16
2022-08-08T12:48:35.815Z,101476.25
2022-08-08T12:51:04.429Z,101497.38
2022-08-08T12:53:37.649Z,101499.84
2022-08-08T12:56:19.170Z,101505.63
2022-08-08T12:58:54.618Z,101500.44
2022-08-08T13:01:24.704Z,101499.81
2022-08-08T13:04:18.937Z,101489.88
2022-08-08T13:07:16.928Z,101483.88
2022-08-08T13:10:05.339Z,101481.97
2022-08-08T13:12:36.579Z,101469.38
2022-08-08T13:15:10.863Z,101464.84
2022-08-08T13:17:54.202Z,101469.19
2022-08-08T13:20:27.344Z,101466.81
2022-08-08T13:23:30.071Z,101473.97
2022-08-08T13:25:43.101Z,101468.97
2022-08-08T13:28:09.797Z,101449.44
2022-08-08T13:30:36.308Z,101477.47
2022-08-08T13:33:04.147Z,101480.06
2022-08-08T13:35:38.578Z,101479.44
2022-08-08T13:38:08.626Z,101475.63
2022-08-08T13:40:44.701Z,101474.91
2022-08-08T13:43:12.352Z,101472.19
2022-08-08T13:45:39.057Z,101457.22
2022-08-08T13:48:14.796Z,101464.53
2022-08-08T13:50:55.306Z,101465.84
2022-08-08T13:53:33.853Z,101465.63
2022-08-08T13:56:07.005Z,101466.31
2022-08-08T13:58:57.727Z,101468.75
2022-08-08T14:01:32.824Z,101461.41
2022-08-08T14:04:24.316Z,101460.91
2022-08-08T14:07:03.996Z,101464.09
2022-08-08T14:10:05.920Z,101464.47
2022-08-08T14:12:33.252Z,101459.38
2022-08-08T14:15:00.727Z,101449.22
2022-08-08T14:17:58.334Z,101460.13
2022-08-08T14:20:58.017Z,101458.19
2022-08-08T14:23:21.345Z,101454.66
2022-08-08T14:26:03.986Z,101429.63
2022-08-08T14:28:39.825Z,101452.38
2022-08-08T14:31:11.455Z,101460.34
2022-08-08T14:33:54.955Z,101461.31
2022-08-08T14:36:33.095Z,101450.84
2022-08-08T14:39:01.041Z,101458.34
2022-08-08T14:41:53.651Z,101456.72
2022-08-08T14:44:22.088Z,101461.84
2022-08-08T14:47:00.248Z,101458.41
2022-08-08T14:49:37.961Z,101450.53
2022-08-08T14:52:21.201Z,101436.00
2022-08-08T14:54:49.526Z,101451.00
2022-08-08T14:57:16.872Z,101438.50
2022-08-08T14:59:44.705Z,101439.22
2022-08-08T15:02:22.291Z,101450.19
2022-08-08T15:04:52.404Z,101448.38
2022-08-08T15:07:22.380Z,101439.91
2022-08-08T15:09:51.435Z,101422.03
2022-08-08T15:12:27.426Z,101435.38
2022-08-08T15:14:55.124Z,101436.34
2022-08-08T15:17:23.327Z,101434.59
2022-08-08T15:19:50.721Z,101428.88
2022-08-08T15:22:23.365Z,101419.09
2022-08-08T15:24:50.762Z,101446.38
2022-08-08T15:28:04.913Z,101442.06
2022-08-08T15:30:05.815Z,101432.53
2022-08-08T15:32:38.894Z,101444.44
2022-08-08T15:35:07.157Z,101425.03
2022-08-08T15:37:34.152Z,101431.72
2022-08-08T15:40:00.968Z,101417.38
2022-08-08T15:42:31.859Z,101418.19
2022-08-08T15:44:59.437Z,101421.66
2022-08-08T15:47:25.999Z,101429.38
2022-08-08T15:49:53.161Z,101434.38
2022-08-08T15:52:21.948Z,101428.63
2022-08-08T15:54:51.857Z,101430.06
2022-08-08T15:57:20.792Z,101417.63
2022-08-08T16:00:05.341Z,101417.84
2022-08-08T16:02:34.887Z,101420.97
2022-08-08T16:05:01.837Z,101413.78
2022-08-08T16:07:39.216Z,101408.16
2022-08-08T16:13:09.627Z,101418.72
2022-08-08T16:13:28.454Z,101421.41
2022-08-08T16:15:59.083Z,101409.16
2022-08-08T16:18:27.571Z,101420.75
2022-08-08T16:20:54.134Z,101421.66
2022-08-08T16:23:27.469Z,101423.78
2022-08-08T16:25:58.169Z,101414.97
2022-08-08T16:28:36.525Z,101417.53
2022-08-08T16:31:07.652Z,101407.91
2022-08-08T16:33:38.497Z,101402.19
2022-08-08T16:36:08.523Z,101398.69
2022-08-08T16:38:44.516Z,101415.16
2022-08-08T16:41:20.648Z,101413.94
2022-08-08T16:43:51.426Z,101412.94
2022-08-08T16:46:42.868Z,101424.22
2022-08-08T16:49:08.990Z,101424.38
2022-08-08T16:55:02.362Z,101414.97
2022-08-08T16:55:05.726Z,101421.06
2022-08-08T16:58:12.844Z,101431.03
2022-08-08T17:00:06.232Z,101426.25
2022-08-08T17:02:39.577Z,101433.13
2022-08-08T17:05:12.863Z,101428.63
2022-08-08T17:07:40.935Z,101424.09
2022-08-08T17:10:09.929Z,101435.16
2022-08-08T17:12:38.418Z,101428.31
2022-08-08T17:15:17.849Z,101427.94
2022-08-08T17:18:02.847Z,101421.94
2022-08-08T17:20:31.614Z,101439.50
2022-08-08T17:23:17.995Z,101435.34
2022-08-08T17:25:52.558Z,101440.00
2022-08-08T17:28:34.298Z,101428.94
2022-08-08T17:31:39.598Z,101456.84
2022-08-08T17:34:36.745Z,101451.97
2022-08-08T17:36:47.958Z,101459.69
2022-08-08T17:40:04.029Z,101464.34
2022-08-08T17:42:13.394Z,101460.50
2022-08-08T17:44:44.031Z,101467.38
2022-08-08T17:47:11.312Z,101468.88
2022-08-08T17:49:50.382Z,101478.03
2022-08-08T17:52:18.452Z,101474.84
2022-08-08T17:54:46.342Z,101484.34
2022-08-08T17:57:14.240Z,101477.75
2022-08-08T17:59:45.834Z,101485.72
2022-08-08T18:02:16.425Z,101487.00
2022-08-08T18:04:50.998Z,101491.81
2022-08-08T18:08:03.017Z,101499.41
2022-08-08T18:10:05.311Z,101498.00
2022-08-08T18:12:31.791Z,101493.09
2022-08-08T18:14:58.731Z,101508.56
2022-08-08T18:17:28.783Z,101502.53
2022-08-08T18:20:43.653Z,101509.06
2022-08-08T18:22:59.775Z,101516.94
2022-08-08T18:25:26.174Z,101513.16
2022-08-08T18:28:03.835Z,101512.34
2022-08-08T18:30:30.282Z,101521.09
2022-08-08T18:32:58.488Z,101519.66
2022-08-08T18:35:25.142Z,101513.66
2022-08-08T18:38:03.671Z,101529.16
2022-08-08T18:40:45.735Z,101516.16
2022-08-08T18:43:16.058Z,101524.88
2022-08-08T18:46:52.288Z,101530.41
2022-08-08T18:48:30.228Z,101534.59
2022-08-08T18:50:58.863Z,101536.16
2022-08-08T18:54:01.018Z,101533.50
2022-08-08T18:56:23.883Z,101547.50
2022-08-08T18:58:50.672Z,101544.84
2022-08-08T19:02:26.771Z,101556.84
2022-08-08T19:04:10.224Z,101555.34
2022-08-08T19:06:37.577Z,101564.00
2022-08-08T19:09:04.343Z,101566.97
2022-08-08T19:11:40.069Z,101574.72
2022-08-08T19:14:13.398Z,101580.59
2022-08-08T19:16:47.030Z,101578.81
2022-08-08T19:19:13.977Z,101585.84
2022-08-08T19:21:49.717Z,101591.59
2022-08-08T19:24:42.331Z,101599.63
2022-08-08T19:27:05.767Z,101597.56
2022-08-08T19:29:34.575Z,101605.06
2022-08-08T19:32:12.586Z,101608.56
2022-08-08T19:34:41.514Z,101608.38
2022-08-08T19:37:16.562Z,101616.34
2022-08-08T19:39:45.582Z,101620.91
2022-08-08T19:42:12.694Z,101624.69
2022-08-08T19:44:45.419Z,101623.66
2022-08-08T19:47:12.635Z,101636.16
2022-08-08T19:49:39.558Z,101641.28
2022-08-08T19:52:11.871Z,101641.94
2022-08-08T19:54:39.827Z,101647.06
2022-08-08T19:57:08.904Z,101643.16
2022-08-08T19:59:36.123Z,101654.44
2022-08-08T20:02:04.588Z,101651.06
2022-08-08T20:04:33.493Z,101659.25
2022-08-08T20:07:05.080Z,101658.13
2022-08-08T20:09:55.690Z,101656.16
2022-08-08T20:12:32.672Z,101666.88
2022-08-08T20:15:10.462Z,101671.09
2022-08-08T20:17:46.215Z,101671.63
2022-08-08T20:20:15.965Z,101670.19
2022-08-08T20:22:53.901Z,101679.19
2022-08-08T20:25:22.445Z,101683.66
2022-08-08T20:27:54.267Z,101688.13
2022-08-08T20:30:52.665Z,101694.00
2022-08-08T20:33:20.152Z,101695.66
2022-08-08T20:35:57.290Z,101698.16
2022-08-08T20:38:29.118Z,101697.56
2022-08-08T20:40:59.290Z,101691.03
2022-08-08T20:43:43.478Z,101703.00
2022-08-08T20:46:12.794Z,101697.63
2022-08-08T20:48:39.213Z,101700.94
2022-08-08T20:51:07.797Z,101708.44
2022-08-08T20:54:00.076Z,101706.13
2022-08-08T20:56:36.040Z,101711.94
2022-08-08T20:59:09.182Z,101707.91
2022-08-08T21:02:05.553Z,101710.38
2022-08-08T21:04:23.282Z,101703.28
2022-08-08T21:06:52.462Z,101697.38
2022-08-08T21:09:21.705Z,101701.22
2022-08-08T21:11:50.594Z,101709.59
2022-08-08T21:14:30.499Z,101704.47
2022-08-08T21:17:00.644Z,101712.50
2022-08-08T21:19:34.016Z,101714.44
2022-08-08T21:22:11.576Z,101712.09
2022-08-08T21:24:39.405Z,101715.44
2022-08-08T21:27:08.343Z,101717.59
2022-08-08T21:30:04.538Z,101718.03
2022-08-08T21:32:35.561Z,101724.63
2022-08-08T21:36:13.614Z,101738.31
2022-08-08T21:37:55.567Z,101734.53
2022-08-08T21:40:31.124Z,101731.66
2022-08-08T21:42:58.256Z,101732.72
2022-08-08T21:47:59.059Z,101734.56
2022-08-08T21:48:21.073Z,101738.66
2022-08-08T21:50:49.757Z,101741.41
2022-08-08T21:54:34.782Z,101737.97
2022-08-08T21:56:24.432Z,101729.91
2022-08-08T21:58:55.204Z,101731.78
2022-08-08T22:01:38.904Z,101743.72
2022-08-08T22:04:07.286Z,101744.16
2022-08-08T22:06:40.468Z,101747.47
2022-08-08T22:09:09.469Z,101750.78
2022-08-08T22:11:51.257Z,101752.72
2022-08-08T22:14:23.903Z,101750.69
2022-08-08T22:16:54.078Z,101750.09
2022-08-08T22:19:23.654Z,101753.38
2022-08-08T22:21:51.111Z,101758.91
2022-08-08T22:24:18.002Z,101752.13
2022-08-08T22:27:01.645Z,101751.53
2022-08-08T22:30:02.076Z,101758.13
2022-08-08T22:32:19.046Z,101752.97
2022-08-08T22:34:50.631Z,101748.38
2022-08-08T22:37:27.605Z,101758.72
2022-08-08T22:40:11.791Z,101762.25
2022-08-08T22:42:43.787Z,101763.28
2022-08-08T22:45:13.860Z,101763.78
2022-08-08T22:47:49.458Z,101765.47
2022-08-08T22:50:26.297Z,101763.44
2022-08-08T22:54:19.495Z,101765.25
2022-08-08T22:55:57.676Z,101773.53
2022-08-08T22:58:28.475Z,101777.94
2022-08-08T23:00:57.956Z,101786.81
2022-08-08T23:03:34.419Z,101784.75
2022-08-08T23:06:12.832Z,101788.28
2022-08-08T23:08:44.135Z,101793.28
2022-08-08T23:11:21.498Z,101795.13
2022-08-08T23:13:51.694Z,101788.31
2022-08-08T23:16:40.949Z,101790.19
2022-08-08T23:19:06.853Z,101788.34
2022-08-08T23:21:35.878Z,101789.94
2022-08-08T23:24:05.016Z,101796.28
2022-08-08T23:26:31.509Z,101792.28
2022-08-08T23:28:57.940Z,101799.19
2022-08-08T23:31:24.482Z,101798.59
2022-08-08T23:34:18.161Z,101802.75
2022-08-08T23:36:38.854Z,101799.81
2022-08-08T23:39:07.573Z,101800.31
2022-08-08T23:41:45.793Z,101804.81
2022-08-08T23:44:14.033Z,101803.59
2022-08-08T23:49:04.614Z,101801.28
2022-08-08T23:49:26.805Z,101798.13
2022-08-08T23:52:05.933Z,101805.28
2022-08-08T23:54:43.257Z,101796.31
2022-08-08T23:57:26.952Z,101795.09
